KE8RXN Weather Reports


Display with metric or nautical units.
time (UTC)temp
F
wind
direction
speed
MPH
gust
MPH
rain 1hr
in
rain 24hr
in
rain mn
in
humidity
%
barometer
mb
20240521012454 66 230 2.0 3.0 0.00 0.44 0.44 94 1012.1
20240521011952 66 231 1.0 2.0 0.00 0.44 0.44 95 1012.2
20240521011451 66 272 2.0 2.0 0.00 0.44 0.44 95 1012.2
20240521010950 66 1 1.0 1.0 0.00 0.44 0.44 96 1012.3
20240521010448 66 11 1.0 2.0 0.00 0.44 0.44 96 1012.2
20240521005939 65 51 0.0 0.0 0.00 0.44 0.44 96 1012.1
20240521005438 65 40 0.0 0.0 0.00 0.44 0.44 96 1012.3
20240521004937 65 34 0.0 0.0 0.00 0.44 0.44 96 1012.3
20240521004436 65 42 0.0 1.0 0.00 0.44 0.44 96 1012.2
20240521003936 65 39 0.0 0.0 0.00 0.44 0.44 96 1012.5
20240521003436 65 318 1.0 1.0 0.00 0.44 0.44 96 1012.7
20240521002934 65 41 0.0 0.0 0.00 0.44 0.44 96 1012.6
20240521002432 65 42 0.0 0.0 0.00 0.44 0.44 95 1012.8
20240521001932 65 76 0.0 0.0 0.00 0.44 0.44 95 1012.7
20240521001430 65 33 0.0 1.0 0.00 0.44 0.44 95 1012.7
20240521000929 65 55 2.0 2.0 0.00 0.44 0.44 95 1012.6
20240521000427 65 34 0.0 0.0 0.00 0.44 0.44 95 1012.7
20240520235926 65 336 0.0 1.0 0.00 0.44 0.44 95 1012.8
20240520235424 65 50 0.0 0.0 0.07 0.44 0.44 95 1013.0
20240520234923 65 48 1.0 1.0 0.26 0.44 0.44 95 1013.1
20240520234421 65 7 2.0 2.0 0.18 0.42 0.42 95 1013.6
20240520233920 65 259 2.0 3.0 0.11 0.39 0.39 96 1013.5
20240520233420 66 57 0.0 1.0 0.35 0.39 0.39 96 1013.4
20240520232919 66 39 0.0 0.0 0.28 0.37 0.37 95 1013.1
20240520232417 66 62 0.0 0.0 0.07 0.33 0.33 95 1013.5
20240520231917 66 16 1.0 1.0 0.11 0.33 0.33 95 1013.2
20240520231417 66 57 0.0 0.0 0.04 0.31 0.31 94 1013.2
20240520230917 66 41 0.0 0.0 0.07 0.31 0.31 94 1013.2
20240520230416 66 43 0.0 1.0 0.07 0.31 0.31 94 1013.5
20240520225915 66 358 1.0 1.0 0.07 0.29 0.29 93 1013.8
20240520225413 66 313 1.0 2.0 0.11 0.29 0.29 92 1013.8
20240520224912 67 299 3.0 5.0 0.11 0.28 0.28 91 1013.5
20240520224411 67 356 2.0 2.0 0.30 0.28 0.28 90 1013.3
20240520223910 68 252 4.0 5.0 0.23 0.26 0.26 89 1013.8
20240520223408 72 270 6.0 8.0 0.00 0.22 0.22 83 1013.5
20240520222908 78 335 4.0 5.0 0.00 0.22 0.22 72 1013.5
20240520222408 79 82 2.0 2.0 0.00 0.22 0.22 68 1012.6
20240520221906 79 44 1.0 1.0 0.00 0.22 0.22 67 1012.3
20240520221406 79 41 0.0 1.0 0.00 0.22 0.22 66 1012.5
20240520220905 80 124 2.0 2.0 0.00 0.22 0.22 67 1012.6
20240520220404 80 45 1.0 1.0 0.00 0.22 0.22 66 1012.9
20240520215902 80 69 1.0 2.0 0.00 0.22 0.22 67 1013.0
20240520215401 80 82 1.0 1.0 0.00 0.22 0.22 66 1013.0
20240520214900 80 59 2.0 3.0 0.00 0.22 0.22 65 1013.0
20240520214359 80 58 3.0 5.0 0.00 0.22 0.22 66 1013.2
20240520213858 81 116 4.0 5.0 0.00 0.22 0.22 64 1013.3
20240520213356 81 90 2.0 2.0 0.00 0.22 0.22 64 1013.2
20240520212855 80 69 3.0 3.0 0.00 0.22 0.22 66 1013.6
20240520212354 80 57 0.0 1.0 0.00 0.22 0.22 65 1013.4
20240520211854 80 78 3.0 3.0 0.00 0.22 0.22 66 1013.5
20240520211353 80 111 4.0 5.0 0.00 0.22 0.22 66 1013.3
20240520210852 80 89 4.0 6.0 0.00 0.22 0.22 64 1013.5
20240520210351 80 40 3.0 3.0 0.00 0.22 0.22 66 1013.6
20240520205849 79 38 3.0 3.0 0.00 0.22 0.22 68 1013.4
20240520205348 79 62 3.0 3.0 0.00 0.22 0.22 70 1013.3
20240520204846 79 69 3.0 3.0 0.00 0.22 0.22 68 1013.5
20240520204346 79 42 1.0 2.0 0.00 0.22 0.22 67 1013.5
20240520203846 80 41 3.0 5.0 0.00 0.22 0.22 66 1013.5
20240520203344 80 74 1.0 2.0 0.00 0.22 0.22 64 1013.7
20240520202843 80 73 5.0 6.0 0.00 0.22 0.22 62 1013.6
20240520202342 79 57 2.0 2.0 0.00 0.22 0.22 63 1013.7
20240520201840 79 59 3.0 3.0 0.00 0.22 0.22 65 1013.9
20240520201339 79 48 1.0 1.0 0.00 0.22 0.22 63 1014.0
20240520200838 79 64 1.0 1.0 0.00 0.22 0.22 62 1014.1
20240520200338 79 103 3.0 3.0 0.00 0.22 0.22 62 1014.1
20240520195836 80 62 1.0 2.0 0.00 0.22 0.22 61 1014.3
20240520195336 80 53 1.0 1.0 0.00 0.22 0.22 60 1014.4
20240520194835 79 47 1.0 2.0 0.00 0.22 0.22 63 1014.4
20240520194335 79 84 3.0 5.0 0.00 0.22 0.22 62 1014.4
20240520193833 79 67 3.0 3.0 0.00 0.22 0.22 62 1014.7
20240520193332 80 58 0.0 0.0 0.00 0.22 0.22 61 1014.6
20240520192832 79 62 3.0 5.0 0.00 0.22 0.22 62 1014.8
20240520192332 78 81 3.0 3.0 0.00 0.22 0.22 63 1015.0
20240520191831 78 42 1.0 2.0 0.00 0.22 0.22 63 1015.1
20240520191329 77 36 2.0 2.0 0.00 0.22 0.22 64 1015.2
20240520190828 78 92 4.0 5.0 0.00 0.22 0.22 63 1014.9
20240520190327 77 88 3.0 3.0 0.00 0.22 0.22 63 1015.2
20240520185826 77 58 4.0 5.0 0.00 0.22 0.22 62 1015.2
20240520185315 77 90 3.0 5.0 0.00 0.22 0.22 64 1015.4
20240520184815 76 43 0.0 1.0 0.00 0.22 0.22 64 1015.5
20240520184314 76 68 4.0 6.0 0.00 0.22 0.22 66 1015.4
20240520183813 75 69 3.0 3.0 0.00 0.22 0.22 67 1015.4
20240520183312 76 32 2.0 2.0 0.00 0.22 0.22 65 1015.5
20240520182810 75 113 4.0 5.0 0.00 0.22 0.22 63 1016.0
20240520182308 75 80 0.0 1.0 0.00 0.22 0.22 66 1016.0
20240520181806 75 43 3.0 3.0 0.00 0.22 0.22 65 1015.8
20240520181304 73 36 2.0 2.0 0.00 0.22 0.22 68 1016.0
20240520180803 72 78 3.0 3.0 0.00 0.22 0.22 68 1016.1
20240520180303 72 72 1.0 1.0 0.00 0.22 0.22 69 1016.2
20240520175802 72 46 3.0 3.0 0.00 0.22 0.22 68 1016.3
20240520175301 71 84 3.0 6.0 0.00 0.22 0.22 70 1016.3
20240520174759 70 57 4.0 5.0 0.00 0.22 0.22 71 1016.4
20240520174259 69 83 4.0 5.0 0.00 0.22 0.22 72 1016.3
20240520173756 69 88 3.0 5.0 0.00 0.22 0.22 73 1016.5
20240520173255 70 141 4.0 5.0 0.00 0.22 0.22 70 1016.5
20240520172751 69 50 3.0 3.0 0.00 0.22 0.22 73 1016.6
20240520172239 69 98 3.0 3.0 0.00 0.22 0.22 74 1016.7
20240520171737 68 60 3.0 5.0 0.00 0.22 0.22 76 1016.8
20240520171236 67 68 3.0 3.0 0.00 0.22 0.22 78 1016.8
20240520170734 68 25 4.0 5.0 0.00 0.22 0.22 77 1017.1
20240520170234 67 77 3.0 3.0 0.00 0.22 0.22 77 1016.8
20240520165731 66 107 4.0 6.0 0.00 0.22 0.22 77 1017.1
20240520165230 66 77 3.0 3.0 0.00 0.22 0.22 76 1016.9
20240520164729 66 60 3.0 3.0 0.00 0.22 0.22 75 1016.8
20240520164227 65 26 6.0 8.0 0.00 0.22 0.22 75 1017.0
20240520163725 64 98 3.0 5.0 0.00 0.22 0.22 78 1017.2
20240520163224 63 26 5.0 6.0 0.00 0.22 0.22 82 1017.1
20240520162720 63 34 5.0 7.0 0.00 0.22 0.22 85 1017.4
20240520162218 62 90 4.0 6.0 0.00 0.22 0.22 86 1017.6
20240520161646 61 70 3.0 3.0 0.00 0.22 0.22 88 1017.6
20240520161142 59 82 5.0 9.0 0.00 0.22 0.22 87 1017.7
20240520160640 59 38 2.0 2.0 0.00 0.22 0.22 89 1017.8
20240520160138 58 40 0.0 0.0 0.00 0.22 0.22 89 1017.9
20240520155634 57 93 2.0 3.0 0.00 0.22 0.22 90 1017.8
20240520155131 56 14 2.0 2.0 0.11 0.22 0.22 90 1018.0
20240520154630 56 60 4.0 5.0 0.16 0.22 0.22 91 1018.5
20240520154129 56 42 1.0 1.0 0.30 0.22 0.22 91 1018.6
20240520153628 56 53 0.0 0.0 0.35 0.20 0.20 90 1018.6
20240520153127 57 32 1.0 1.0 0.42 0.18 0.18 89 1018.7
20240520152625 59 38 0.0 0.0 0.66 0.15 0.15 91 1019.1
20240520152123 59 56 0.0 1.0 0.26 0.07 0.07 90 1018.8
20240520151622 60 303 2.0 2.0 0.07 0.03 0.03 88 1019.6
20240520151121 60 24 1.0 1.0 0.00 0.02 0.02 86 1018.7
20240520150620 61 355 2.0 2.0 0.04 0.02 0.02 84 1018.9
20240520150119 62 230 2.0 2.0 0.11 0.02 0.02 82 1018.7
20240520145617 63 5 1.0 1.0 0.16 0.02 0.02 81 1018.3
20240520145116 64 40 0.0 0.0 0.04 0.00 0.00 79 1018.3
20240520144615 65 49 0.0 0.0 0.00 0.00 0.00 74 1017.9
20240520144113 66 248 1.0 2.0 0.00 0.00 0.00 69 1017.7
20240520143613 66 13 1.0 1.0 0.00 0.00 0.00 67 1017.6
20240520143112 67 16 1.0 1.0 0.00 0.00 0.00 67 1018.0
20240520142611 68 216 5.0 6.0 0.00 0.00 0.00 63 1018.2
20240520142103 68 339 1.0 1.0 0.00 0.00 0.00 64 1018.4
20240520141532 69 333 2.0 2.0 0.00 0.00 0.00 63 1018.0
20240520141031 69 316 3.0 3.0 0.00 0.00 0.00 62 1017.5
20240520140531 69 303 4.0 6.0 0.00 0.00 0.00 61 1018.2
20240520140030 69 6 1.0 1.0 0.00 0.00 0.00 61 1017.8
20240520135529 70 0 1.0 1.0 0.00 0.00 0.00 59 1017.4
20240520135029 71 216 5.0 6.0 0.00 0.00 0.00 59 1018.0
20240520134528 74 249 4.0 5.0 0.00 0.00 0.00 57 1017.4
20240520134026 73 45 0.0 0.0 0.00 0.00 0.00 59 1017.0
20240520133524 72 72 0.0 0.0 0.00 0.00 0.00 60 1017.2
20240520133023 72 62 1.0 2.0 0.00 0.00 0.00 61 1017.0
20240520132523 73 47 0.0 0.0 0.00 0.00 0.00 61 1017.1
20240520132022 73 61 2.0 2.0 0.00 0.00 0.00 58 1017.2
20240520131521 73 58 1.0 2.0 0.00 0.00 0.00 62 1017.1
20240520131021 73 70 1.0 1.0 0.00 0.00 0.00 62 1017.1
20240520130520 72 43 0.0 0.0 0.00 0.00 0.00 64 1017.3
20240520130018 71 47 1.0 2.0 0.00 0.00 0.00 67 1017.4
20240520125517 69 60 1.0 1.0 0.00 0.00 0.00 70 1017.3
20240520125016 68 67 1.0 1.0 0.00 0.00 0.00 72 1017.4
20240520124514 68 52 1.0 1.0 0.00 0.00 0.00 72 1017.3
20240520124013 68 63 1.0 1.0 0.00 0.00 0.00 73 1017.2
20240520123511 68 63 0.0 1.0 0.00 0.00 0.00 74 1017.3
20240520123009 67 57 2.0 2.0 0.00 0.00 0.00 75 1017.1
20240520122507 66 46 0.0 0.0 0.00 0.00 0.00 79 1016.9
20240520122006 65 66 2.0 2.0 0.00 0.00 0.00 80 1016.7
20240520121505 64 51 1.0 1.0 0.00 0.00 0.00 82 1016.8
20240520121003 64 30 2.0 2.0 0.00 0.00 0.00 82 1016.7
20240520120459 63 61 1.0 2.0 0.00 0.00 0.00 84 1016.7
20240520120000 63 64 1.0 2.0 0.00 0.00 0.00 85 1016.7
20240520115458 63 49 4.0 5.0 0.00 0.00 0.00 85 1016.7
20240520114956 62 40 3.0 3.0 0.00 0.00 0.00 85 1016.7
20240520114455 62 38 3.0 5.0 0.00 0.00 0.00 86 1016.8
20240520113952 62 58 2.0 3.0 0.00 0.00 0.00 86 1016.9
20240520113450 62 60 1.0 2.0 0.00 0.00 0.00 86 1016.9
20240520112949 61 68 2.0 2.0 0.00 0.00 0.00 87 1016.9
20240520112447 61 47 0.0 0.0 0.00 0.00 0.00 88 1016.9
20240520111947 60 58 3.0 3.0 0.00 0.00 0.00 88 1017.0
20240520111446 60 63 3.0 3.0 0.00 0.00 0.00 88 1016.9
20240520110944 60 59 2.0 2.0 0.00 0.00 0.00 89 1016.9
20240520110442 59 35 2.0 2.0 0.00 0.00 0.00 89 1016.8
20240520105940 59 68 4.0 5.0 0.00 0.00 0.00 89 1016.8
20240520105438 58 53 2.0 2.0 0.00 0.00 0.00 89 1016.9
20240520104938 58 40 1.0 2.0 0.00 0.00 0.00 89 1017.1
20240520104437 58 57 2.0 2.0 0.00 0.00 0.00 89 1017.0
20240520103935 58 51 2.0 2.0 0.00 0.00 0.00 89 1016.8
20240520103433 57 57 1.0 1.0 0.00 0.00 0.00 89 1016.8
20240520102932 57 50 1.0 1.0 0.00 0.00 0.00 89 1016.8
20240520102431 57 44 2.0 2.0 0.00 0.00 0.00 89 1017.0
20240520101929 57 55 3.0 3.0 0.00 0.00 0.00 89 1016.9
20240520101429 58 57 2.0 2.0 0.00 0.00 0.00 88 1017.1
20240520100928 58 40 4.0 5.0 0.00 0.00 0.00 88 1016.8
20240520100427 58 50 2.0 2.0 0.00 0.00 0.00 88 1017.0
20240520095926 58 67 2.0 2.0 0.00 0.00 0.00 88 1016.8
20240520095425 58 73 3.0 3.0 0.00 0.00 0.00 87 1017.2
20240520094925 58 68 2.0 3.0 0.00 0.00 0.00 87 1017.1
20240520094424 58 56 2.0 2.0 0.00 0.00 0.00 87 1017.1
20240520093923 58 40 2.0 2.0 0.00 0.00 0.00 86 1017.1
20240520093422 58 75 3.0 3.0 0.00 0.00 0.00 86 1017.1
20240520092920 58 59 3.0 3.0 0.00 0.00 0.00 86 1017.0
20240520092419 57 83 1.0 1.0 0.00 0.00 0.00 86 1017.0
20240520091918 57 48 2.0 2.0 0.00 0.00 0.00 86 1017.0
20240520091417 56 57 1.0 1.0 0.00 0.00 0.00 85 1017.3
20240520090915 55 97 3.0 3.0 0.00 0.00 0.00 86 1017.3
20240520090414 54 44 1.0 1.0 0.00 0.00 0.00 86 1017.6
20240520085912 52 57 1.0 2.0 0.00 0.00 0.00 87 1017.5
20240520085410 51 45 0.0 0.0 0.00 0.00 0.00 86 1017.5
20240520084908 51 42 0.0 0.0 0.00 0.00 0.00 86 1017.7
20240520084406 51 42 0.0 0.0 0.00 0.00 0.00 86 1017.7
20240520083905 51 42 0.0 0.0 0.00 0.00 0.00 86 1017.6
20240520083404 51 42 0.0 0.0 0.00 0.00 0.00 86 1017.6
20240520082903 50 44 0.0 0.0 0.00 0.00 0.00 86 1017.6
20240520082401 50 47 0.0 0.0 0.00 0.00 0.00 86 1017.6
20240520081900 50 45 0.0 0.0 0.00 0.00 0.00 86 1017.6
20240520081359 50 44 0.0 0.0 0.00 0.00 0.00 86 1017.5
20240520080858 50 48 0.0 0.0 0.00 0.00 0.00 85 1017.6
20240520080358 51 42 0.0 0.0 0.00 0.00 0.00 85 1017.4
20240520075856 51 29 0.0 0.0 0.00 0.00 0.00 82 1017.4
20240520075356 51 44 0.0 0.0 0.00 0.00 0.00 82 1017.4
20240520074854 50 43 0.0 0.0 0.00 0.00 0.00 81 1017.3
20240520074352 50 42 0.0 0.0 0.00 0.00 0.00 84 1017.3
20240520073851 50 42 0.0 0.0 0.00 0.00 0.00 84 1017.2
20240520073350 51 45 0.0 0.0 0.00 0.00 0.00 84 1017.3
20240520072848 50 46 0.0 0.0 0.00 0.00 0.00 83 1017.3
20240520072348 50 42 0.0 0.0 0.00 0.00 0.00 84 1017.2
20240520071846 50 46 0.0 0.0 0.00 0.00 0.00 88 1017.3
20240520071346 50 46 0.0 0.0 0.00 0.00 0.00 89 1017.5
20240520070844 50 46 0.0 0.0 0.00 0.00 0.00 89 1017.5
20240520070343 50 49 0.0 0.0 0.00 0.00 0.00 89 1017.7
20240520065844 50 40 0.0 0.0 0.00 0.00 0.00 89 1017.7
20240520065342 50 38 0.0 0.0 0.00 0.00 0.00 90 1017.8
20240520064841 50 36 0.0 0.0 0.00 0.00 0.00 90 1017.9
20240520064340 50 45 0.0 0.0 0.00 0.00 0.00 90 1017.8
20240520063839 50 46 0.0 0.0 0.00 0.00 0.00 90 1017.9
20240520063337 50 43 0.0 0.0 0.00 0.00 0.00 89 1017.8
20240520062837 50 44 0.0 0.0 0.00 0.00 0.00 89 1017.8
20240520062335 50 45 0.0 0.0 0.00 0.00 0.00 89 1017.7
20240520061834 50 45 0.0 0.0 0.00 0.00 0.00 89 1017.7
20240520061333 50 46 0.0 0.0 0.00 0.00 0.00 89 1017.7
20240520060831 51 45 0.0 0.0 0.00 0.00 0.00 88 1017.5
20240520060331 51 41 0.0 0.0 0.00 0.00 0.00 88 1017.6
20240520055830 50 40 0.0 0.0 0.00 0.00 0.00 88 1017.5
20240520055328 50 44 0.0 0.0 0.00 0.00 0.00 87 1017.5
20240520054827 50 44 0.0 0.0 0.00 0.00 0.00 87 1017.3
20240520054326 51 43 0.0 0.0 0.00 0.00 0.00 87 1017.3
20240520053824 51 42 0.0 0.0 0.00 0.00 0.00 87 1017.5
20240520053324 51 42 0.0 0.0 0.00 0.00 0.00 86 1017.4
20240520052823 51 43 0.0 0.0 0.00 0.00 0.00 86 1017.4
20240520052322 51 43 0.0 0.0 0.00 0.00 0.00 85 1017.7
20240520051821 51 43 0.0 0.0 0.00 0.00 0.00 84 1017.3
20240520051319 51 43 0.0 0.0 0.00 0.00 0.00 83 1017.3
20240520050818 51 43 0.0 0.0 0.00 0.00 0.00 80 1017.5
20240520050317 52 43 0.0 0.0 0.00 0.00 0.00 79 1017.7
20240520045816 52 42 0.0 0.0 0.00 0.00 0.00 78 1017.7
20240520045315 52 39 0.0 0.0 0.00 0.00 0.00 78 1017.8
20240520044813 52 45 0.0 0.0 0.00 0.00 0.00 78 1017.8
20240520044313 52 44 0.0 0.0 0.00 0.00 0.00 79 1017.9
20240520043811 52 48 0.0 0.0 0.00 0.00 0.00 80 1017.8
20240520043311 52 46 0.0 0.0 0.00 0.00 0.00 81 1017.8
20240520042810 52 45 0.0 0.0 0.00 0.00 0.00 82 1018.0
20240520042310 52 46 0.0 0.0 0.00 0.00 0.00 81 1018.0
20240520041809 53 47 0.0 0.0 0.00 0.00 0.00 81 1017.9
20240520041308 53 45 0.0 0.0 0.00 0.00 0.00 80 1018.0
20240520040807 53 45 0.0 0.0 0.00 0.00 0.00 79 1018.2
20240520040305 54 45 0.0 0.0 0.00 0.00 0.00 77 1018.2
20240520035805 54 45 0.0 0.0 0.00 0.00 0.00 74 1018.1
20240520035305 54 45 0.0 0.0 0.00 0.00 0.00 73 1018.3
20240520034803 54 45 0.0 0.0 0.00 0.00 0.00 72 1018.1
20240520034301 54 46 0.0 0.0 0.00 0.00 0.00 72 1018.2
20240520033759 54 46 0.0 0.0 0.00 0.00 0.00 72 1018.0
20240520033258 54 46 0.0 0.0 0.00 0.00 0.00 71 1018.1
20240520032757 54 46 0.0 0.0 0.00 0.00 0.00 71 1018.2
20240520032256 55 46 0.0 0.0 0.00 0.00 0.00 70 1018.4
20240520031755 55 46 0.0 0.0 0.00 0.00 0.00 70 1018.4
20240520031254 55 46 0.0 0.0 0.00 0.00 0.00 69 1018.3
20240520030751 55 45 0.0 0.0 0.00 0.00 0.00 68 1018.6
20240520030251 56 45 0.0 0.0 0.00 0.00 0.00 67 1018.3
20240520025750 56 44 0.0 0.0 0.00 0.00 0.00 66 1018.7
20240520025249 57 44 0.0 0.0 0.00 0.00 0.00 65 1018.7
20240520024748 57 43 0.0 0.0 0.00 0.00 0.00 66 1018.8
20240520024246 58 45 0.0 0.0 0.00 0.00 0.00 66 1018.6
20240520023746 58 48 0.0 0.0 0.00 0.00 0.00 64 1018.5
20240520023244 59 48 0.0 0.0 0.00 0.00 0.00 65 1018.5
20240520022743 59 50 0.0 0.0 0.00 0.00 0.00 66 1018.6
20240520022242 60 51 0.0 0.0 0.00 0.00 0.00 63 1018.6
20240520021742 59 57 0.0 1.0 0.00 0.00 0.00 63 1018.6
20240520021241 59 51 0.0 0.0 0.00 0.00 0.00 67 1018.9
20240520020741 59 44 0.0 0.0 0.00 0.00 0.00 66 1019.0
20240520020240 60 43 0.0 0.0 0.00 0.00 0.00 65 1018.7
20240520015739 60 44 0.0 0.0 0.00 0.00 0.00 61 1018.8
20240520015237 61 32 0.0 1.0 0.00 0.00 0.00 60 1018.6
20240520014735 61 40 0.0 0.0 0.00 0.00 0.00 60 1018.3
20240520014235 61 48 0.0 0.0 0.00 0.00 0.00 57 1018.4
20240520013734 61 41 0.0 0.0 0.00 0.00 0.00 55 1018.4
20240520013234 62 42 0.0 0.0 0.00 0.00 0.00 55 1018.4
20240520012733 63 42 0.0 0.0 0.00 0.00 0.00 55 1018.4